createdAt,value
2024-04-30T00:00:54.248Z,13.57
2024-04-30T00:03:41.440Z,13.53
2024-04-30T00:06:11.087Z,13.52
2024-04-30T00:08:39.507Z,13.53
2024-04-30T00:11:08.192Z,13.53
2024-04-30T00:13:36.755Z,13.55
2024-04-30T00:16:06.195Z,13.56
2024-04-30T00:18:34.722Z,13.54
2024-04-30T00:21:03.420Z,13.48
2024-04-30T00:23:32.133Z,13.42
2024-04-30T00:26:00.750Z,13.37
2024-04-30T00:28:29.480Z,13.34
2024-04-30T00:30:58.226Z,13.33
2024-04-30T00:33:27.043Z,13.32
2024-04-30T00:35:55.364Z,13.31
2024-04-30T00:38:23.731Z,13.31
2024-04-30T00:40:52.341Z,13.30
2024-04-30T00:43:21.572Z,13.29
2024-04-30T00:45:50.044Z,13.29
2024-04-30T00:48:19.935Z,13.29
2024-04-30T00:50:49.590Z,13.29
2024-04-30T00:53:18.621Z,13.30
2024-04-30T00:55:47.101Z,13.30
2024-04-30T00:58:16.110Z,13.32
2024-04-30T01:00:44.738Z,13.34
2024-04-30T01:03:13.771Z,13.33
2024-04-30T01:05:42.451Z,13.31
2024-04-30T01:08:10.894Z,13.30
2024-04-30T01:10:39.934Z,13.26
2024-04-30T01:13:10.710Z,13.22
2024-04-30T01:15:39.216Z,13.18
2024-04-30T01:18:08.052Z,13.15
2024-04-30T01:20:36.688Z,13.11
2024-04-30T01:23:05.530Z,13.04
2024-04-30T01:25:34.211Z,13.01
2024-04-30T01:28:03.019Z,12.98
2024-04-30T01:30:31.657Z,12.93
2024-04-30T01:33:01.902Z,12.87
2024-04-30T01:35:30.773Z,12.81
2024-04-30T01:37:59.396Z,12.75
2024-04-30T01:40:27.904Z,12.70
2024-04-30T01:42:56.432Z,12.68
2024-04-30T01:45:25.129Z,12.65
2024-04-30T01:47:53.814Z,12.62
2024-04-30T01:50:22.386Z,12.62
2024-04-30T01:52:50.892Z,12.60
2024-04-30T01:55:19.493Z,12.56
2024-04-30T01:57:49.622Z,12.53
2024-04-30T02:00:18.447Z,12.48
2024-04-30T02:02:47.115Z,12.43
2024-04-30T02:05:21.140Z,12.39
2024-04-30T02:07:53.850Z,12.38
2024-04-30T02:10:22.439Z,12.37
2024-04-30T02:12:50.943Z,12.35
2024-04-30T02:15:19.270Z,12.31
2024-04-30T02:17:47.910Z,12.27
2024-04-30T02:20:16.594Z,12.20
2024-04-30T02:22:45.300Z,12.18
2024-04-30T02:25:14.364Z,12.17
2024-04-30T02:27:42.867Z,12.15
2024-04-30T02:30:27.484Z,12.15
2024-04-30T02:33:22.827Z,12.13
2024-04-30T02:35:51.276Z,12.11
2024-04-30T02:38:19.733Z,12.08
2024-04-30T02:40:48.463Z,12.06
2024-04-30T02:43:16.908Z,12.04
2024-04-30T02:45:45.599Z,12.01
2024-04-30T02:48:15.141Z,11.97
2024-04-30T02:50:43.874Z,11.94
2024-04-30T02:53:12.442Z,11.90
2024-04-30T02:55:41.327Z,11.86
2024-04-30T02:58:10.046Z,11.83
2024-04-30T03:00:38.588Z,11.82
2024-04-30T03:03:07.073Z,11.79
2024-04-30T03:05:35.603Z,11.74
2024-04-30T03:08:05.091Z,11.72
2024-04-30T03:10:34.357Z,11.69
2024-04-30T03:13:03.306Z,11.64
2024-04-30T03:15:31.891Z,11.62
2024-04-30T03:18:02.349Z,11.58
2024-04-30T03:20:31.137Z,11.55
2024-04-30T03:22:59.796Z,11.52
2024-04-30T03:25:28.305Z,11.49
2024-04-30T03:27:59.802Z,11.47
2024-04-30T03:30:29.196Z,11.46
2024-04-30T03:32:59.245Z,11.43
2024-04-30T03:35:28.328Z,11.40
2024-04-30T03:37:57.164Z,11.36
2024-04-30T03:40:26.026Z,11.32
2024-04-30T03:42:54.739Z,11.27
2024-04-30T03:45:23.413Z,11.28
2024-04-30T03:47:52.094Z,11.26
2024-04-30T03:50:20.616Z,11.24
2024-04-30T03:52:49.206Z,11.23
2024-04-30T03:55:17.919Z,11.18
2024-04-30T03:57:46.661Z,11.18
2024-04-30T04:00:15.495Z,11.18
2024-04-30T04:02:44.074Z,11.21
2024-04-30T04:05:13.024Z,11.25
2024-04-30T04:07:41.495Z,11.30
2024-04-30T04:10:10.066Z,11.34
2024-04-30T04:12:57.211Z,11.36
2024-04-30T04:15:25.615Z,11.37
2024-04-30T04:17:54.163Z,11.40
2024-04-30T04:20:22.693Z,11.44
2024-04-30T04:22:51.236Z,11.46
2024-04-30T04:25:19.924Z,11.51
2024-04-30T04:27:48.482Z,11.56
2024-04-30T04:30:17.348Z,11.62
2024-04-30T04:32:46.076Z,11.67
2024-04-30T04:35:15.387Z,11.73
2024-04-30T04:37:45.114Z,11.80
2024-04-30T04:40:14.117Z,11.87
2024-04-30T04:42:42.822Z,11.94
2024-04-30T04:45:11.366Z,12.01
2024-04-30T04:47:39.887Z,12.08
2024-04-30T04:50:09.251Z,12.16
2024-04-30T04:52:39.592Z,12.24
2024-04-30T04:55:08.396Z,12.34
2024-04-30T04:57:36.987Z,12.45
2024-04-30T05:00:07.535Z,12.57
2024-04-30T05:02:36.038Z,12.69
2024-04-30T05:05:05.478Z,12.82
2024-04-30T05:07:34.262Z,12.98
2024-04-30T05:10:03.057Z,13.14
2024-04-30T05:12:31.675Z,13.29
2024-04-30T05:15:00.069Z,13.45
2024-04-30T05:17:28.628Z,13.60
2024-04-30T05:19:57.120Z,13.76
2024-04-30T05:22:25.630Z,13.93
2024-04-30T05:24:54.270Z,14.09
2024-04-30T05:27:22.843Z,14.23
2024-04-30T05:29:54.102Z,14.41
2024-04-30T05:32:28.779Z,14.57
2024-04-30T05:34:59.379Z,14.73
2024-04-30T05:37:28.129Z,14.89
2024-04-30T05:39:56.525Z,15.03
2024-04-30T05:42:25.061Z,15.16
2024-04-30T05:44:53.700Z,15.30
2024-04-30T05:47:22.233Z,15.45
2024-04-30T05:49:50.966Z,15.60
2024-04-30T05:52:19.532Z,15.75
2024-04-30T05:54:48.208Z,15.89
2024-04-30T05:57:16.909Z,16.02
2024-04-30T05:59:45.410Z,16.16
2024-04-30T06:02:14.186Z,16.29
2024-04-30T06:04:43.050Z,16.42
2024-04-30T06:07:11.755Z,16.56
2024-04-30T06:09:40.456Z,16.69
2024-04-30T06:12:09.684Z,16.82
2024-04-30T06:14:38.392Z,16.95
2024-04-30T06:17:07.263Z,17.08
2024-04-30T06:19:36.177Z,17.21
2024-04-30T06:22:05.256Z,17.35
2024-04-30T06:24:33.938Z,17.49
2024-04-30T06:27:02.443Z,17.61
2024-04-30T06:29:30.919Z,17.73
2024-04-30T06:31:59.266Z,17.86
2024-04-30T06:34:27.874Z,17.96
2024-04-30T06:36:56.674Z,18.07
2024-04-30T06:39:25.365Z,18.21
2024-04-30T06:41:53.825Z,18.32
2024-04-30T06:44:22.486Z,18.42
2024-04-30T06:46:50.973Z,18.53
2024-04-30T06:49:19.585Z,18.63
2024-04-30T06:51:48.461Z,18.78
2024-04-30T06:54:18.731Z,18.88
2024-04-30T06:56:47.591Z,18.99
2024-04-30T06:59:16.240Z,19.09
2024-04-30T07:01:44.803Z,19.23
2024-04-30T07:04:13.423Z,19.34
2024-04-30T07:06:42.113Z,19.45
2024-04-30T07:09:10.591Z,19.54
2024-04-30T07:11:39.064Z,19.64
2024-04-30T07:14:07.779Z,19.76
2024-04-30T07:16:46.165Z,19.86
2024-04-30T07:19:20.903Z,19.98
2024-04-30T07:21:49.414Z,20.09
2024-04-30T07:24:18.142Z,20.20
2024-04-30T07:26:46.930Z,20.31
2024-04-30T07:29:15.598Z,20.44
2024-04-30T07:31:44.343Z,20.55
2024-04-30T07:34:13.265Z,20.66
2024-04-30T07:36:41.940Z,20.78
2024-04-30T07:39:10.344Z,20.88
2024-04-30T07:41:38.945Z,20.97
2024-04-30T07:44:07.672Z,21.05
2024-04-30T07:46:36.318Z,21.15
2024-04-30T07:49:05.355Z,21.28
2024-04-30T07:51:36.325Z,21.41
2024-04-30T07:54:04.981Z,21.55
2024-04-30T07:56:33.479Z,21.63
2024-04-30T07:59:02.052Z,21.75
2024-04-30T08:01:30.708Z,21.87
2024-04-30T08:03:59.300Z,21.96
2024-04-30T08:06:27.737Z,22.04
2024-04-30T08:08:56.105Z,22.11
2024-04-30T08:11:24.934Z,22.15
2024-04-30T08:13:53.289Z,22.21
2024-04-30T08:16:21.984Z,22.32
2024-04-30T08:18:51.153Z,22.43
2024-04-30T08:21:19.831Z,22.53
2024-04-30T08:23:48.440Z,22.59
2024-04-30T08:26:17.308Z,22.69
2024-04-30T08:28:45.896Z,22.80
2024-04-30T08:31:15.094Z,22.89
2024-04-30T08:33:43.738Z,22.95
2024-04-30T08:36:12.271Z,23.01
2024-04-30T08:38:40.904Z,23.10
2024-04-30T08:41:09.658Z,23.19
2024-04-30T08:43:39.663Z,23.28
2024-04-30T08:46:08.566Z,23.34
2024-04-30T08:48:40.783Z,23.36
2024-04-30T08:51:10.448Z,23.44
2024-04-30T08:53:39.206Z,23.49
2024-04-30T08:56:11.686Z,23.52
2024-04-30T08:58:40.996Z,23.59
2024-04-30T09:01:10.584Z,23.69
2024-04-30T09:03:42.881Z,23.77
2024-04-30T09:06:12.345Z,23.88
2024-04-30T09:08:41.057Z,23.94
2024-04-30T09:11:09.623Z,23.98
2024-04-30T09:13:41.464Z,24.01
2024-04-30T09:16:10.239Z,24.08
2024-04-30T09:18:39.288Z,24.18
2024-04-30T09:21:16.592Z,24.24
2024-04-30T09:23:46.082Z,24.29
2024-04-30T09:26:14.544Z,24.36
2024-04-30T09:28:53.171Z,24.42
2024-04-30T09:31:21.785Z,24.45
2024-04-30T09:33:54.800Z,24.41
2024-04-30T09:36:23.304Z,24.39
2024-04-30T09:38:54.569Z,24.38
2024-04-30T09:41:26.592Z,24.39
2024-04-30T09:43:55.875Z,24.45
2024-04-30T09:46:25.002Z,24.50
2024-04-30T09:48:54.663Z,24.51
2024-04-30T09:51:25.346Z,24.53
2024-04-30T09:53:54.390Z,24.54
2024-04-30T09:56:23.256Z,24.60
2024-04-30T09:58:52.191Z,24.65
2024-04-30T10:01:22.791Z,24.71
2024-04-30T10:03:53.860Z,24.76
2024-04-30T10:06:23.619Z,24.79
2024-04-30T10:08:52.586Z,24.87
2024-04-30T10:11:23.759Z,24.93
2024-04-30T10:13:53.750Z,25.01
2024-04-30T10:16:23.015Z,25.11
2024-04-30T10:19:02.937Z,25.19
2024-04-30T10:21:35.309Z,25.26
2024-04-30T10:24:17.358Z,25.29
2024-04-30T10:26:46.695Z,25.35
2024-04-30T10:29:15.901Z,25.40
2024-04-30T10:31:46.279Z,25.48
2024-04-30T10:34:14.785Z,25.55
2024-04-30T10:36:48.060Z,25.63
2024-04-30T10:39:26.197Z,25.72
2024-04-30T10:41:55.008Z,25.79
2024-04-30T10:44:23.802Z,25.84
2024-04-30T10:46:55.867Z,25.83
2024-04-30T10:49:24.465Z,25.80
2024-04-30T10:51:53.056Z,25.80
2024-04-30T10:54:21.784Z,25.82
2024-04-30T10:56:50.182Z,25.90
2024-04-30T10:59:27.094Z,25.99
2024-04-30T11:01:59.437Z,26.04
2024-04-30T11:04:31.512Z,26.05
2024-04-30T11:07:00.278Z,26.07
2024-04-30T11:09:29.065Z,26.09
2024-04-30T11:12:01.433Z,26.12
2024-04-30T11:14:30.702Z,26.10
2024-04-30T11:17:01.231Z,26.14
2024-04-30T11:19:29.884Z,26.17
2024-04-30T11:21:58.567Z,26.22
2024-04-30T11:24:27.692Z,26.29
2024-04-30T11:26:56.350Z,26.37
2024-04-30T11:29:34.934Z,26.40
2024-04-30T11:32:08.904Z,26.46
2024-04-30T11:34:37.737Z,26.48
2024-04-30T11:37:06.552Z,26.48
2024-04-30T11:39:35.359Z,26.52
2024-04-30T11:42:14.990Z,26.55
2024-04-30T11:44:49.916Z,26.58
2024-04-30T11:47:18.526Z,26.59
2024-04-30T11:49:47.214Z,26.62
2024-04-30T11:52:17.916Z,26.63
2024-04-30T11:54:46.642Z,26.68
2024-04-30T11:57:16.021Z,26.70
2024-04-30T11:59:44.914Z,26.72
2024-04-30T12:02:13.652Z,26.78
2024-04-30T12:04:42.342Z,26.85
2024-04-30T12:07:10.991Z,26.92
2024-04-30T12:09:41.333Z,26.96
2024-04-30T12:12:10.136Z,26.99
2024-04-30T12:14:40.105Z,27.03
2024-04-30T12:17:08.815Z,27.05
2024-04-30T12:19:38.159Z,27.10
2024-04-30T12:22:06.725Z,27.16
2024-04-30T12:24:35.406Z,27.23
2024-04-30T12:27:04.600Z,27.19
2024-04-30T12:29:33.218Z,27.14
2024-04-30T12:32:01.697Z,27.12
2024-04-30T12:34:30.741Z,27.14
2024-04-30T12:36:59.770Z,27.17
2024-04-30T12:39:28.915Z,27.23
2024-04-30T12:41:57.353Z,27.29
2024-04-30T12:44:26.064Z,27.33
2024-04-30T12:46:54.773Z,27.35
2024-04-30T12:49:23.491Z,27.38
2024-04-30T12:51:52.342Z,27.44
2024-04-30T12:54:21.118Z,27.47
2024-04-30T12:56:49.886Z,27.53
2024-04-30T12:59:18.688Z,27.58
2024-04-30T13:01:47.575Z,27.59
2024-04-30T13:04:16.286Z,27.62
2024-04-30T13:06:46.122Z,27.66
2024-04-30T13:09:14.757Z,27.69
2024-04-30T13:11:43.365Z,27.68
2024-04-30T13:14:12.902Z,27.68
2024-04-30T13:16:41.793Z,27.69
2024-04-30T13:19:10.495Z,27.70
2024-04-30T13:21:39.349Z,27.70
2024-04-30T13:24:11.851Z,27.71
2024-04-30T13:26:40.471Z,27.74
2024-04-30T13:29:09.018Z,27.74
2024-04-30T13:31:42.790Z,27.77
2024-04-30T13:34:11.426Z,27.82
2024-04-30T13:36:42.232Z,27.84
2024-04-30T13:39:11.443Z,27.88
2024-04-30T13:41:39.966Z,27.90
2024-04-30T13:44:08.596Z,27.95
2024-04-30T13:46:37.258Z,27.98
2024-04-30T13:49:06.053Z,28.00
2024-04-30T13:51:34.414Z,28.03
2024-04-30T13:54:05.733Z,28.02
2024-04-30T13:56:34.566Z,28.01
2024-04-30T13:59:05.597Z,28.01
2024-04-30T14:01:36.124Z,28.00
2024-04-30T14:04:15.050Z,27.97
2024-04-30T14:06:44.009Z,27.94
2024-04-30T14:09:12.387Z,27.92
2024-04-30T14:11:40.911Z,27.92
2024-04-30T14:14:09.372Z,27.95
2024-04-30T14:16:43.110Z,27.97
2024-04-30T14:19:11.733Z,27.96
2024-04-30T14:21:40.250Z,27.95
2024-04-30T14:24:08.962Z,27.94
2024-04-30T14:26:37.466Z,27.98
2024-04-30T14:29:09.493Z,28.00
2024-04-30T14:31:38.074Z,27.99
2024-04-30T14:34:07.011Z,27.98
2024-04-30T14:36:36.789Z,27.99
2024-04-30T14:39:10.699Z,28.01
2024-04-30T14:41:39.734Z,28.00
2024-04-30T14:44:08.640Z,28.00
2024-04-30T14:46:37.509Z,27.97
2024-04-30T14:49:06.540Z,27.97
2024-04-30T14:51:35.628Z,27.99
2024-04-30T14:54:04.838Z,27.99
2024-04-30T14:56:34.123Z,28.00
2024-04-30T14:59:02.743Z,28.00
2024-04-30T15:01:31.235Z,27.95
2024-04-30T15:04:00.642Z,27.91
2024-04-30T15:06:29.456Z,27.87
2024-04-30T15:08:58.230Z,27.85
2024-04-30T15:11:27.202Z,27.82
2024-04-30T15:13:57.755Z,27.75
2024-04-30T15:16:26.167Z,27.69
2024-04-30T15:18:54.747Z,27.67
2024-04-30T15:21:23.457Z,27.61
2024-04-30T15:23:52.148Z,27.57
2024-04-30T15:26:20.594Z,27.55
2024-04-30T15:28:49.088Z,27.47
2024-04-30T15:31:18.020Z,27.41
2024-04-30T15:33:46.879Z,27.39
2024-04-30T15:36:15.438Z,27.37
2024-04-30T15:38:45.740Z,27.37
2024-04-30T15:41:21.020Z,27.38
2024-04-30T15:43:49.625Z,27.39
2024-04-30T15:46:18.426Z,27.40
2024-04-30T15:48:49.646Z,27.39
2024-04-30T15:51:18.265Z,27.41
2024-04-30T15:53:46.895Z,27.41
2024-04-30T15:56:17.638Z,27.45
2024-04-30T15:58:48.303Z,27.47
2024-04-30T16:01:17.238Z,27.59
2024-04-30T16:03:45.998Z,27.68
2024-04-30T16:06:15.038Z,27.74
2024-04-30T16:08:43.626Z,27.85
2024-04-30T16:11:12.440Z,27.93
2024-04-30T16:13:41.672Z,27.80
2024-04-30T16:16:16.547Z,27.65
2024-04-30T16:18:48.093Z,27.43
2024-04-30T16:21:17.280Z,27.26
2024-04-30T16:23:46.647Z,27.24
2024-04-30T16:26:15.421Z,27.34
2024-04-30T16:28:44.837Z,27.18
2024-04-30T16:31:15.802Z,27.10
2024-04-30T16:33:44.670Z,27.00
2024-04-30T16:36:20.641Z,27.09
2024-04-30T16:38:51.378Z,27.13
2024-04-30T16:41:20.088Z,27.02
2024-04-30T16:43:48.873Z,26.97
2024-04-30T16:46:19.824Z,26.85
2024-04-30T16:48:48.461Z,26.76
2024-04-30T16:51:17.225Z,26.62
2024-04-30T16:53:45.778Z,26.47
2024-04-30T16:56:14.872Z,26.31
2024-04-30T16:58:43.417Z,26.18
2024-04-30T17:01:12.122Z,26.07
2024-04-30T17:03:41.644Z,25.94
2024-04-30T17:06:10.943Z,25.82
2024-04-30T17:08:40.091Z,25.73
2024-04-30T17:11:09.738Z,25.65
2024-04-30T17:13:41.906Z,25.58
2024-04-30T17:16:17.956Z,25.50
2024-04-30T17:18:46.841Z,25.43
2024-04-30T17:21:18.460Z,25.35
2024-04-30T17:23:47.064Z,25.26
2024-04-30T17:26:26.258Z,25.19
2024-04-30T17:28:56.024Z,25.10
2024-04-30T17:31:25.275Z,25.03
2024-04-30T17:33:56.093Z,24.97
2024-04-30T17:36:25.195Z,24.91
2024-04-30T17:38:54.039Z,24.80
2024-04-30T17:41:26.644Z,24.73
2024-04-30T17:43:55.381Z,24.64
2024-04-30T17:46:26.981Z,24.56
2024-04-30T17:48:56.867Z,24.47
2024-04-30T17:51:26.009Z,24.39
2024-04-30T17:53:54.828Z,24.29
2024-04-30T17:56:23.468Z,24.19
2024-04-30T17:58:52.444Z,24.07
2024-04-30T18:01:21.165Z,23.85
2024-04-30T18:03:53.836Z,23.62
2024-04-30T18:06:23.185Z,23.39
2024-04-30T18:08:56.900Z,23.16
2024-04-30T18:11:26.288Z,22.95
2024-04-30T18:13:56.143Z,22.74
2024-04-30T18:16:25.948Z,22.53
2024-04-30T18:18:55.321Z,22.32
2024-04-30T18:21:26.868Z,22.13
2024-04-30T18:23:55.614Z,21.95
2024-04-30T18:26:24.135Z,21.80
2024-04-30T18:28:54.508Z,21.63
2024-04-30T18:31:24.518Z,21.47
2024-04-30T18:33:53.740Z,21.30
2024-04-30T18:36:24.982Z,21.13
2024-04-30T18:38:53.927Z,20.94
2024-04-30T18:41:28.423Z,20.78
2024-04-30T18:44:00.092Z,20.60
2024-04-30T18:46:28.597Z,20.48
2024-04-30T18:48:58.201Z,20.36
2024-04-30T18:51:27.349Z,20.28
2024-04-30T18:53:56.295Z,20.21
2024-04-30T18:56:25.351Z,20.12
2024-04-30T18:58:53.840Z,20.02
2024-04-30T19:01:25.276Z,19.98
2024-04-30T19:03:53.914Z,20.01
2024-04-30T19:06:22.564Z,20.09
2024-04-30T19:08:51.122Z,20.19
2024-04-30T19:11:20.067Z,20.28
2024-04-30T19:13:49.019Z,20.38
2024-04-30T19:16:17.600Z,20.46
2024-04-30T19:18:46.323Z,20.53
2024-04-30T19:21:15.149Z,20.57
2024-04-30T19:23:43.572Z,20.61
2024-04-30T19:26:14.075Z,20.55
2024-04-30T19:28:42.733Z,20.37
2024-04-30T19:31:19.906Z,20.18
2024-04-30T19:33:48.891Z,19.98
2024-04-30T19:36:19.230Z,19.80
2024-04-30T19:38:48.363Z,19.65
2024-04-30T19:41:17.929Z,19.54
2024-04-30T19:43:46.793Z,19.46
2024-04-30T19:46:18.199Z,19.40
2024-04-30T19:48:47.085Z,19.35
2024-04-30T19:51:19.358Z,19.30
2024-04-30T19:53:48.780Z,19.26
2024-04-30T19:56:19.111Z,19.24
2024-04-30T19:58:51.646Z,19.19
2024-04-30T20:01:24.006Z,19.17
2024-04-30T20:03:53.216Z,19.14
2024-04-30T20:06:24.334Z,19.10
2024-04-30T20:08:52.879Z,19.06
2024-04-30T20:11:24.211Z,19.02
2024-04-30T20:13:53.866Z,18.98
2024-04-30T20:16:24.252Z,18.93
2024-04-30T20:18:53.138Z,18.88
2024-04-30T20:21:22.552Z,18.83
2024-04-30T20:23:51.313Z,18.79
2024-04-30T20:26:19.817Z,18.74
2024-04-30T20:28:48.517Z,18.68
2024-04-30T20:31:17.397Z,18.62
2024-04-30T20:33:45.819Z,18.58
2024-04-30T20:36:18.022Z,18.56
2024-04-30T20:38:46.945Z,18.54
2024-04-30T20:41:15.837Z,18.49
2024-04-30T20:43:44.578Z,18.47
2024-04-30T20:46:13.290Z,18.43
2024-04-30T20:48:43.115Z,18.38
2024-04-30T20:51:13.223Z,18.34
2024-04-30T20:53:41.958Z,18.31
2024-04-30T20:56:11.140Z,18.28
2024-04-30T20:58:41.336Z,18.25
2024-04-30T21:01:15.501Z,18.21
2024-04-30T21:03:44.662Z,18.19
2024-04-30T21:06:13.746Z,18.15
2024-04-30T21:08:42.616Z,18.13
2024-04-30T21:11:15.068Z,18.09
2024-04-30T21:13:44.576Z,17.95
2024-04-30T21:16:14.606Z,18.03
2024-04-30T21:18:45.580Z,18.00
2024-04-30T21:21:15.631Z,17.98
2024-04-30T21:23:44.415Z,17.93
2024-04-30T21:26:13.487Z,17.85
2024-04-30T21:28:42.104Z,17.78
2024-04-30T21:31:10.626Z,17.67
2024-04-30T21:33:42.149Z,17.57
2024-04-30T21:36:12.600Z,17.45
2024-04-30T21:38:41.429Z,17.35
2024-04-30T21:41:10.310Z,17.24
2024-04-30T21:43:39.728Z,17.15
2024-04-30T21:46:08.595Z,17.04
2024-04-30T21:48:39.896Z,16.92
2024-04-30T21:51:08.493Z,16.81
2024-04-30T21:53:39.061Z,16.70
2024-04-30T21:56:08.361Z,16.55
2024-04-30T21:58:37.011Z,16.39
2024-04-30T22:01:07.777Z,16.24
2024-04-30T22:03:37.645Z,16.09
2024-04-30T22:06:07.098Z,15.97
2024-04-30T22:08:38.323Z,15.80
2024-04-30T22:11:07.431Z,15.61
2024-04-30T22:13:35.997Z,15.46
2024-04-30T22:16:06.114Z,15.33
2024-04-30T22:18:35.898Z,15.22
2024-04-30T22:21:09.908Z,15.13
2024-04-30T22:23:38.772Z,15.03
2024-04-30T22:26:08.006Z,14.97
2024-04-30T22:28:36.600Z,14.90
2024-04-30T22:31:06.235Z,14.82
2024-04-30T22:33:35.305Z,14.73
2024-04-30T22:36:05.335Z,14.64
2024-04-30T22:38:33.902Z,14.56
2024-04-30T22:41:02.294Z,14.46
2024-04-30T22:43:30.714Z,14.33
2024-04-30T22:46:00.138Z,14.21
2024-04-30T22:48:29.045Z,14.11
2024-04-30T22:50:58.039Z,14.03
2024-04-30T22:53:29.103Z,13.99
2024-04-30T22:55:59.160Z,13.92
2024-04-30T22:58:29.325Z,13.87
2024-04-30T23:00:57.896Z,13.80
2024-04-30T23:03:26.659Z,13.70
2024-04-30T23:05:58.388Z,13.61
2024-04-30T23:08:26.695Z,13.58
2024-04-30T23:10:55.437Z,13.54
2024-04-30T23:13:23.790Z,13.49
2024-04-30T23:15:52.359Z,13.47
2024-04-30T23:18:21.131Z,13.43
2024-04-30T23:20:49.858Z,13.39
2024-04-30T23:23:18.532Z,13.31
2024-04-30T23:25:48.012Z,13.25
2024-04-30T23:28:16.691Z,13.18
2024-04-30T23:30:45.360Z,13.13
2024-04-30T23:33:14.014Z,13.07
2024-04-30T23:35:42.489Z,13.04
2024-04-30T23:38:13.607Z,12.96
2024-04-30T23:40:42.630Z,12.91
2024-04-30T23:43:11.303Z,12.84
2024-04-30T23:45:39.965Z,12.76
2024-04-30T23:48:09.084Z,12.68
2024-04-30T23:50:37.776Z,12.65
2024-04-30T23:53:09.251Z,12.60
2024-04-30T23:55:37.718Z,12.54
2024-04-30T23:58:06.438Z,12.54
